Aquone, North Carolina
Current Conditions -  °F | °C
As of 5:15 PM on Sunday 25 Jan 2015 (Local Time) from KRHP Reporting Station
Overcast Overcast  
Wind Chill: 51°   Ceiling: 9000
Heat Index: 51°   Visibility: 10mi
Dew Point: 29°   Wind: 3mph
Humidity: 43%   Direction: 220°SW
Pressure: 29.71"   Gusts: NA
Location:  35.2235°N, 83.6438°W
Report Text: KRHP 252215Z AUTO 22003KT 10SM OVC090 11/M01 A2971 RMK AO2 T01081014
Loading
Personal Weather Stations






























Interactive Weather Map New forecast layout! Learn more

10-Day Weather Forecast

Advertisements
Track Severe Weather on mobile